Time;durP1;ratioP1;P1;durP2;ratioP2;P2;SDS_P1;SDS_P2;PMS_P1;PMS_P2;Temp;Humidity;BMP_temperature;BMP_pressure;BME280_temperature;BME280_humidity;BME280_pressure;Samples;Min_cycle;Max_cycle;Signal;HPM_P1;HPM_P2
2022/03/05 00:01:46;;;;;;;;;21.00;19.00;;;;;;;;5184011;27;12394;-79
2022/03/05 00:04:13;;;;;;;;;19.33;16.33;;;;;;;;5183928;27;11955;-79
2022/03/05 00:06:38;;;;;;;;;19.67;17.33;;;;;;;;5183537;27;14795;-78
2022/03/05 00:09:03;;;;;;;;;17.00;16.00;;;;;;;;5183692;27;9978;-79
2022/03/05 07:02:36;;;;;;;;;15.50;15.50;;;;;;;;5190787;27;78711;-74
2022/03/05 07:05:01;;;;;;;;;21.67;20.33;;;;;;;;5176816;27;23629;-75
2022/03/05 07:07:26;;;;;;;;;13.00;10.00;;;;;;;;5177099;27;13812;-79
2022/03/05 07:09:51;;;;;;;;;23.67;19.67;;;;;;;;5177860;27;13376;-83
2022/03/05 07:12:17;;;;;;;;;24.67;14.33;;;;;;;;5178392;27;13201;-77
2022/03/05 07:14:44;;;;;;;;;24.33;21.00;;;;;;;;5177668;27;11596;-74
2022/03/05 07:17:10;;;;;;;;;22.33;17.00;;;;;;;;5176328;27;12282;-75
2022/03/05 07:19:35;;;;;;;;;17.33;17.33;;;;;;;;5177480;27;9521;-74
2022/03/05 07:22:00;;;;;;;;;25.00;20.00;;;;;;;;5176827;27;13203;-74
2022/03/05 07:24:26;;;;;;;;;20.00;18.00;;;;;;;;5177230;27;13694;-74
2022/03/05 07:26:51;;;;;;;;;20.00;18.33;;;;;;;;5177219;27;9654;-74
2022/03/05 07:29:16;;;;;;;;;20.67;19.00;;;;;;;;5176291;27;8824;-74
2022/03/05 07:31:41;;;;;;;;;26.67;19.00;;;;;;;;5176405;27;10568;-75
2022/03/05 07:34:07;;;;;;;;;21.67;20.00;;;;;;;;5176482;27;8868;-72
2022/03/05 07:36:33;;;;;;;;;20.33;20.33;;;;;;;;5175959;27;9052;-71
2022/03/05 07:38:58;;;;;;;;;27.67;20.33;;;;;;;;5176080;27;11602;-71
2022/03/05 07:41:23;;;;;;;;;23.00;21.33;;;;;;;;5176912;27;10335;-74
2022/03/05 07:43:49;;;;;;;;;20.00;17.00;;;;;;;;5175662;27;10564;-73
2022/03/05 07:46:14;;;;;;;;;18.33;16.33;;;;;;;;5175823;27;12174;-73
2022/03/05 07:48:40;;;;;;;;;17.00;17.00;;;;;;;;5169687;27;13589;-73
2022/03/05 07:51:05;;;;;;;;;28.33;24.67;;;;;;;;5163461;27;11378;-73
2022/03/05 07:53:33;;;;;;;;;22.33;18.67;;;;;;;;5156110;27;13286;-73
2022/03/05 07:55:59;;;;;;;;;19.33;19.33;;;;;;;;5155618;27;9862;-73
2022/03/05 07:58:24;;;;;;;;;19.33;17.00;;;;;;;;5155301;27;13332;-73
2022/03/05 08:00:49;;;;;;;;;20.67;17.33;;;;;;;;5155367;27;8925;-72
2022/03/05 08:03:15;;;;;;;;;24.67;18.33;;;;;;;;5166320;27;14620;-73
2022/03/05 08:05:41;;;;;;;;;18.67;16.33;;;;;;;;5175322;27;8799;-72
2022/03/05 08:08:06;;;;;;;;;25.00;17.67;;;;;;;;5173461;27;11603;-72
2022/03/05 08:10:32;;;;;;;;;17.33;16.33;;;;;;;;5172333;27;13496;-74
2022/03/05 08:12:57;;;;;;;;;30.33;19.33;;;;;;;;5156749;27;14580;-71
2022/03/05 08:15:22;;;;;;;;;16.00;16.00;;;;;;;;5158084;27;10583;-72
2022/03/05 08:17:59;;;;;;;;;20.50;17.50;;;;;;;;5155802;27;13340;-72
2022/03/05 08:20:27;;;;;;;;;21.75;18.50;;;;;;;;5158666;27;13438;-72
2022/03/05 08:22:52;;;;;;;;;21.50;18.00;;;;;;;;5162042;27;11587;-73
2022/03/05 08:25:18;;;;;;;;;22.00;18.00;;;;;;;;5161190;27;11487;-71
2022/03/05 08:27:43;;;;;;;;;20.25;17.75;;;;;;;;5159460;27;9089;-72
2022/03/05 08:30:09;;;;;;;;;16.75;15.75;;;;;;;;5152947;27;11395;-71
2022/03/05 08:32:34;;;;;;;;;23.75;18.75;;;;;;;;5149307;27;11623;-73
2022/03/05 08:35:00;;;;;;;;;18.25;18.00;;;;;;;;5160837;27;10516;-72
2022/03/05 08:37:25;;;;;;;;;14.75;14.00;;;;;;;;5160598;27;13433;-74
2022/03/05 08:39:50;;;;;;;;;20.25;18.25;;;;;;;;5160621;27;9758;-75
2022/03/05 08:42:16;;;;;;;;;21.25;19.50;;;;;;;;5157804;27;13699;-76
2022/03/05 08:44:41;;;;;;;;;20.50;18.50;;;;;;;;5161283;27;11362;-73
2022/03/05 08:47:08;;;;;;;;;23.25;20.50;;;;;;;;5161405;27;10327;-73
2022/03/05 08:49:34;;;;;;;;;17.75;17.75;;;;;;;;5161019;27;11898;-73
2022/03/05 08:51:59;;;;;;;;;21.75;19.00;;;;;;;;5161143;27;13204;-73
2022/03/05 08:54:27;;;;;;;;;22.00;19.50;;;;;;;;5161029;27;13253;-73
2022/03/05 08:56:53;;;;;;;;;20.25;19.00;;;;;;;;5158689;27;11880;-74
2022/03/05 08:59:21;;;;;;;;;17.00;11.25;;;;;;;;5161791;27;11400;-75
2022/03/05 09:01:46;;;;;;;;;22.00;20.00;;;;;;;;5142102;27;15312;-73
2022/03/05 09:04:12;;;;;;;;;21.75;20.00;;;;;;;;5160852;27;14800;-73
2022/03/05 09:06:38;;;;;;;;;22.00;18.00;;;;;;;;5161206;27;8999;-74
2022/03/05 09:09:04;;;;;;;;;20.75;18.75;;;;;;;;5156868;27;11644;-73
2022/03/05 09:11:29;;;;;;;;;21.50;19.75;;;;;;;;5149779;27;11674;-73
2022/03/05 09:13:54;;;;;;;;;25.75;21.25;;;;;;;;5154543;27;10806;-73
2022/03/05 09:16:20;;;;;;;;;19.00;16.33;;;;;;;;5130689;27;13486;-74
2022/03/05 09:18:45;;;;;;;;;16.33;13.33;;;;;;;;5140472;27;12200;-75
2022/03/05 09:21:11;;;;;;;;;18.33;18.33;;;;;;;;5140546;27;10332;-75
2022/03/05 09:23:36;;;;;;;;;16.00;15.00;;;;;;;;5139689;27;8955;-73
2022/03/05 09:26:02;;;;;;;;;19.67;19.67;;;;;;;;5139033;27;11590;-73
2022/03/05 09:28:28;;;;;;;;;20.00;17.00;;;;;;;;5147435;27;11430;-74
2022/03/05 09:30:58;;;;;;;;;23.67;20.33;;;;;;;;5129980;27;16388;-73
2022/03/05 09:33:23;;;;;;;;;20.25;18.75;;;;;;;;5119818;27;13048;-76
2022/03/05 09:35:49;;;;;;;;;20.33;16.67;;;;;;;;5139967;27;12838;-75
2022/03/05 09:38:15;;;;;;;;;18.33;16.00;;;;;;;;5139922;27;8858;-74
2022/03/05 09:40:40;;;;;;;;;20.67;18.67;;;;;;;;5139915;27;13340;-75
2022/03/05 09:43:06;;;;;;;;;4.00;4.00;;;;;;;;5139421;27;13283;-74
2022/03/05 09:45:31;;;;;;;;;17.33;17.33;;;;;;;;5139609;27;22462;-75
2022/03/05 09:47:56;;;;;;;;;22.00;19.33;;;;;;;;5139647;27;23581;-75
2022/03/05 09:50:24;;;;;;;;;20.67;19.00;;;;;;;;5139554;27;12200;-77
2022/03/05 09:52:49;;;;;;;;;17.75;17.75;;;;;;;;5141886;27;11454;-77
2022/03/05 09:55:14;;;;;;;;;19.00;16.33;;;;;;;;5158080;27;13336;-75
2022/03/05 09:57:40;;;;;;;;;20.33;17.33;;;;;;;;5158661;27;10354;-76
2022/03/05 10:00:05;;;;;;;;;19.67;19.33;;;;;;;;5158279;27;12634;-74
2022/03/05 10:02:31;;;;;;;;;17.00;17.00;;;;;;;;5158238;27;12156;-76
2022/03/05 10:05:12;;;;;;;;;16.33;16.33;;;;;;;;5158577;27;13113;-73
2022/03/05 10:07:37;;;;;;;;;21.75;19.75;;;;;;;;5155798;27;12098;-76
2022/03/05 10:10:07;;;;;;;;;19.00;17.33;;;;;;;;5158493;27;12764;-78
2022/03/05 10:12:33;;;;;;;;;20.00;18.00;;;;;;;;5157871;27;12516;-76
2022/03/05 10:15:23;;;;;;;;;18.50;18.25;;;;;;;;5159216;27;13475;-78
2022/03/05 10:17:49;;;;;;;;;15.75;15.75;;;;;;;;5157152;27;13325;-75
2022/03/05 10:20:15;;;;;;;;;18.25;17.25;;;;;;;;5158834;27;10497;-80
2022/03/05 10:22:56;;;;;;;;;17.00;15.67;;;;;;;;5158608;27;10400;-76
2022/03/05 10:25:27;;;;;;;;;16.75;15.25;;;;;;;;5159462;27;11664;-77
2022/03/05 10:27:52;;;;;;;;;17.00;16.75;;;;;;;;5159484;27;11919;-78
2022/03/05 10:30:27;;;;;;;;;18.67;18.67;;;;;;;;5159040;27;10322;-82
2022/03/05 10:32:53;;;;;;;;;19.50;17.00;;;;;;;;5159732;27;11432;-81
2022/03/05 10:35:18;;;;;;;;;15.67;14.67;;;;;;;;5150546;27;11356;-80
2022/03/05 10:37:49;;;;;;;;;21.00;18.33;;;;;;;;5148885;27;11370;-78
2022/03/05 10:40:14;;;;;;;;;21.50;17.50;;;;;;;;5160017;27;13538;-79
2022/03/05 10:42:46;;;;;;;;;20.00;18.50;;;;;;;;5159902;27;10464;-80
2022/03/05 10:45:13;;;;;;;;;17.50;17.00;;;;;;;;5156498;27;10627;-79
2022/03/05 10:47:40;;;;;;;;;18.75;17.75;;;;;;;;5159873;27;13787;-79
2022/03/05 10:50:19;;;;;;;;;20.00;17.75;;;;;;;;5159513;27;11514;-80
2022/03/05 10:52:45;;;;;;;;;17.25;16.50;;;;;;;;5160079;27;10282;-76
2022/03/05 10:55:18;;;;;;;;;16.25;13.50;;;;;;;;5153287;27;13464;-75
2022/03/05 10:57:56;;;;;;;;;19.50;14.50;;;;;;;;5156825;27;9088;-77
2022/03/05 11:00:21;;;;;;;;;22.00;16.00;;;;;;;;5159071;27;11646;-77
2022/03/05 11:02:51;;;;;;;;;18.00;16.00;;;;;;;;5157987;27;13208;-75
2022/03/05 11:05:19;;;;;;;;;17.67;13.33;;;;;;;;5158552;27;8784;-76
2022/03/05 11:07:45;;;;;;;;;15.75;14.75;;;;;;;;5158527;27;11711;-75
2022/03/05 11:10:11;;;;;;;;;17.00;15.25;;;;;;;;5158474;27;10366;-74
2022/03/05 11:12:38;;;;;;;;;17.50;14.75;;;;;;;;5158665;27;10385;-76
2022/03/05 11:15:06;;;;;;;;;13.50;13.50;;;;;;;;5157877;27;9569;-83
2022/03/05 11:17:31;;;;;;;;;19.25;17.00;;;;;;;;5160134;27;12772;-83
2022/03/05 11:19:57;;;;;;;;;16.75;16.00;;;;;;;;5160831;27;11369;-78
2022/03/05 11:22:22;;;;;;;;;16.25;16.25;;;;;;;;5157799;27;9878;-77
2022/03/05 11:24:48;;;;;;;;;13.00;10.50;;;;;;;;5158004;27;9879;-76
2022/03/05 11:27:14;;;;;;;;;21.50;16.25;;;;;;;;5158842;27;11714;-79
2022/03/05 11:29:59;;;;;;;;;16.25;14.50;;;;;;;;5159947;27;13430;-81
2022/03/05 11:32:31;;;;;;;;;18.00;16.25;;;;;;;;5140738;27;13482;-81
2022/03/05 11:34:56;;;;;;;;;16.50;15.00;;;;;;;;5136228;27;11639;-83
2022/03/05 11:37:22;;;;;;;;;17.25;15.75;;;;;;;;5140540;27;13604;-82
2022/03/05 11:39:48;;;;;;;;;19.75;15.25;;;;;;;;5150638;27;11512;-79
2022/03/05 11:42:25;;;;;;;;;22.00;14.75;;;;;;;;5159808;27;10387;-83
2022/03/05 11:44:50;;;;;;;;;18.50;17.50;;;;;;;;5140569;27;14379;-81
2022/03/05 11:47:19;;;;;;;;;16.75;13.50;;;;;;;;5160343;27;13320;-81
2022/03/05 11:49:58;;;;;;;;;14.25;11.75;;;;;;;;5163441;27;10607;-81
2022/03/05 11:52:43;;;;;;;;;19.75;16.00;;;;;;;;5162923;27;12492;-82
2022/03/05 11:55:13;;;;;;;;;16.25;15.00;;;;;;;;5163726;27;12477;-81
2022/03/05 11:57:41;;;;;;;;;21.25;16.00;;;;;;;;5161870;27;11524;-80
2022/03/05 12:00:06;;;;;;;;;22.75;19.50;;;;;;;;5146153;27;12638;-80
2022/03/05 12:02:45;;;;;;;;;23.50;17.25;;;;;;;;5164946;27;11446;-79
2022/03/05 12:05:30;;;;;;;;;16.75;16.75;;;;;;;;5160549;27;11684;-82
2022/03/05 12:07:56;;;;;;;;;16.50;15.00;;;;;;;;5142020;27;15043;-77
2022/03/05 12:10:21;;;;;;;;;13.50;13.00;;;;;;;;5162785;27;11462;-79
2022/03/05 12:12:55;;;;;;;;;13.50;12.25;;;;;;;;5162985;27;8945;-78
2022/03/05 12:15:32;;;;;;;;;18.25;15.25;;;;;;;;5162810;27;9385;-77
2022/03/05 12:17:57;;;;;;;;;23.00;16.75;;;;;;;;5144403;27;11453;-78
2022/03/05 12:20:24;;;;;;;;;13.25;12.00;;;;;;;;5162667;27;12656;-78
2022/03/05 12:22:55;;;;;;;;;15.00;15.00;;;;;;;;5160999;27;13314;-78
2022/03/05 12:25:21;;;;;;;;;17.00;14.50;;;;;;;;5161941;27;11424;-78
2022/03/05 12:27:47;;;;;;;;;19.00;15.25;;;;;;;;5163127;27;12555;-78
2022/03/05 12:30:16;;;;;;;;;14.50;14.00;;;;;;;;5162256;27;11602;-78
2022/03/05 12:32:44;;;;;;;;;20.50;14.25;;;;;;;;5162631;27;11466;-77
2022/03/05 12:35:10;;;;;;;;;16.50;12.00;;;;;;;;5162856;27;13317;-78
2022/03/05 12:37:35;;;;;;;;;14.75;13.25;;;;;;;;5162283;27;13712;-78
2022/03/05 12:40:01;;;;;;;;;14.75;14.25;;;;;;;;5162687;27;12842;-77
2022/03/05 12:42:44;;;;;;;;;15.00;13.75;;;;;;;;5144018;27;9567;-78
2022/03/05 12:45:17;;;;;;;;;15.00;14.00;;;;;;;;5162211;27;11538;-76
2022/03/05 12:47:42;;;;;;;;;14.00;10.25;;;;;;;;5163340;27;12177;-78
2022/03/05 12:50:27;;;;;;;;;9.75;5.50;;;;;;;;5162853;27;11440;-76
2022/03/05 12:52:56;;;;;;;;;12.25;11.50;;;;;;;;5162205;27;22343;-77
2022/03/05 12:55:21;;;;;;;;;10.25;9.75;;;;;;;;5143604;27;22895;-78
2022/03/05 12:57:47;;;;;;;;;13.25;13.00;;;;;;;;5162585;27;21483;-77
2022/03/05 13:00:12;;;;;;;;;18.75;12.00;;;;;;;;5161778;27;21426;-78
2022/03/05 13:02:40;;;;;;;;;11.50;10.25;;;;;;;;5162896;27;9499;-80
2022/03/05 13:05:15;;;;;;;;;11.00;11.00;;;;;;;;5163293;27;11576;-77
2022/03/05 13:07:40;;;;;;;;;16.00;12.50;;;;;;;;5162299;27;11403;-78
2022/03/05 13:10:08;;;;;;;;;18.75;11.00;;;;;;;;5143632;27;12883;-78
2022/03/05 13:12:36;;;;;;;;;12.50;11.00;;;;;;;;5162068;27;11587;-78
2022/03/05 13:15:01;;;;;;;;;10.25;9.00;;;;;;;;5162490;27;11414;-77
2022/03/05 13:17:27;;;;;;;;;9.50;8.75;;;;;;;;5161967;27;22111;-77
2022/03/05 13:20:00;;;;;;;;;13.00;10.25;;;;;;;;5161770;27;22497;-78
2022/03/05 13:22:26;;;;;;;;;12.75;8.75;;;;;;;;5162001;27;22659;-78
2022/03/05 13:24:51;;;;;;;;;8.25;8.00;;;;;;;;5162458;27;22369;-78
2022/03/05 13:27:16;;;;;;;;;9.50;9.50;;;;;;;;5162281;27;21409;-79
2022/03/05 13:29:42;;;;;;;;;11.00;9.50;;;;;;;;5162380;27;11288;-80
2022/03/05 13:32:07;;;;;;;;;9.25;9.00;;;;;;;;5142852;27;18867;-79
2022/03/05 13:34:35;;;;;;;;;15.50;10.00;;;;;;;;5161868;27;21374;-78
2022/03/05 13:37:07;;;;;;;;;12.00;9.00;;;;;;;;5162223;27;23676;-78
2022/03/05 13:39:33;;;;;;;;;10.50;8.50;;;;;;;;5160932;27;21478;-78
2022/03/05 13:41:59;;;;;;;;;9.00;6.75;;;;;;;;5162053;27;12156;-77
2022/03/05 13:44:32;;;;;;;;;12.00;10.25;;;;;;;;5142158;27;23426;-78
2022/03/05 13:46:58;;;;;;;;;10.00;9.00;;;;;;;;5161089;27;22397;-79
2022/03/05 13:49:24;;;;;;;;;9.75;6.75;;;;;;;;5160646;27;21381;-78
2022/03/05 13:51:51;;;;;;;;;6.00;6.00;;;;;;;;5161785;27;21904;-77
2022/03/05 13:54:29;;;;;;;;;6.50;6.50;;;;;;;;5161375;27;11388;-79
2022/03/05 13:56:54;;;;;;;;;8.75;7.25;;;;;;;;5160725;27;11439;-78
2022/03/05 13:59:21;;;;;;;;;13.00;9.75;;;;;;;;5161669;27;11884;-76
2022/03/05 14:01:52;;;;;;;;;10.00;7.50;;;;;;;;5160924;27;21809;-79
2022/03/05 14:04:22;;;;;;;;;15.00;11.75;;;;;;;;5161144;27;12133;-78
2022/03/05 14:06:58;;;;;;;;;9.50;9.25;;;;;;;;5161127;27;21615;-77
2022/03/05 14:09:31;;;;;;;;;12.25;9.00;;;;;;;;5160568;27;22246;-77
2022/03/05 14:12:06;;;;;;;;;6.00;6.00;;;;;;;;5160270;27;21481;-77
2022/03/05 14:14:48;;;;;;;;;7.25;7.25;;;;;;;;5160631;27;21535;-78
2022/03/05 14:17:30;;;;;;;;;6.75;6.75;;;;;;;;5141898;27;12776;-77
2022/03/05 14:20:15;;;;;;;;;10.00;10.00;;;;;;;;5161581;27;11367;-77
2022/03/05 14:22:56;;;;;;;;;9.00;6.75;;;;;;;;5160741;27;22486;-78
2022/03/05 14:25:27;;;;;;;;;13.00;8.25;;;;;;;;5141349;27;23942;-78
2022/03/05 14:27:56;;;;;;;;;13.75;9.50;;;;;;;;5160738;27;21626;-78
2022/03/05 14:30:22;;;;;;;;;7.50;7.25;;;;;;;;5160505;27;11429;-78
2022/03/05 14:32:47;;;;;;;;;9.75;6.75;;;;;;;;5160162;27;21552;-77
2022/03/05 14:35:14;;;;;;;;;8.50;6.50;;;;;;;;5160634;27;10427;-78
2022/03/05 14:37:41;;;;;;;;;13.00;9.00;;;;;;;;5161730;27;11387;-77
2022/03/05 14:40:07;;;;;;;;;7.25;7.25;;;;;;;;5160853;27;21473;-78
2022/03/05 14:42:33;;;;;;;;;8.75;8.00;;;;;;;;5160205;27;22578;-78
2022/03/05 14:44:58;;;;;;;;;9.50;9.25;;;;;;;;5160718;27;11544;-78
2022/03/05 14:47:23;;;;;;;;;10.50;8.25;;;;;;;;5160548;27;11536;-78
2022/03/05 14:49:49;;;;;;;;;11.25;10.00;;;;;;;;5160482;27;21915;-75
2022/03/05 14:52:14;;;;;;;;;12.75;9.25;;;;;;;;5160369;27;21648;-78
2022/03/05 14:54:40;;;;;;;;;13.50;9.50;;;;;;;;5154612;27;21383;-77
2022/03/05 14:57:05;;;;;;;;;9.75;8.75;;;;;;;;5139579;27;10362;-77
2022/03/05 14:59:31;;;;;;;;;12.25;9.50;;;;;;;;5139496;27;21789;-78
2022/03/05 15:01:56;;;;;;;;;10.00;9.50;;;;;;;;5139236;27;21593;-77
2022/03/05 15:04:21;;;;;;;;;9.25;8.00;;;;;;;;5139933;27;8782;-78
2022/03/05 15:06:46;;;;;;;;;10.00;6.50;;;;;;;;5140118;27;21486;-75
2022/03/05 15:09:13;;;;;;;;;8.00;8.00;;;;;;;;5139111;27;22612;-77
2022/03/05 15:11:38;;;;;;;;;11.75;10.25;;;;;;;;5138957;27;22708;-76
2022/03/05 15:14:04;;;;;;;;;10.67;8.33;;;;;;;;5138837;27;22252;-80
2022/03/05 15:16:30;;;;;;;;;11.00;8.50;;;;;;;;5138929;27;21367;-76
2022/03/05 15:18:55;;;;;;;;;10.75;8.00;;;;;;;;5139945;27;10446;-76
2022/03/05 15:21:20;;;;;;;;;6.25;6.25;;;;;;;;5158751;27;10282;-76
2022/03/05 15:23:46;;;;;;;;;10.00;10.00;;;;;;;;5160443;27;22694;-76
2022/03/05 15:26:11;;;;;;;;;9.67;9.00;;;;;;;;5161884;27;22339;-77
2022/03/05 15:28:36;;;;;;;;;13.75;9.00;;;;;;;;5161602;27;22283;-80
2022/03/05 15:31:02;;;;;;;;;6.50;6.50;;;;;;;;5161098;27;16471;-75
2022/03/05 15:33:28;;;;;;;;;10.00;9.25;;;;;;;;5158636;27;21893;-77
2022/03/05 15:35:53;;;;;;;;;15.75;9.75;;;;;;;;5161246;27;21349;-76
2022/03/05 15:38:19;;;;;;;;;10.75;9.00;;;;;;;;5161996;27;10696;-78
2022/03/05 15:40:44;;;;;;;;;10.50;8.25;;;;;;;;5161626;27;10518;-77
2022/03/05 15:43:09;;;;;;;;;13.50;11.50;;;;;;;;5160752;27;11688;-76
2022/03/05 15:45:35;;;;;;;;;13.25;9.75;;;;;;;;5157242;27;23261;-74
2022/03/05 15:48:01;;;;;;;;;6.00;6.00;;;;;;;;5160706;27;21469;-77
2022/03/05 15:50:27;;;;;;;;;6.50;6.50;;;;;;;;5161106;27;21987;-76
2022/03/05 15:52:53;;;;;;;;;9.75;6.00;;;;;;;;5162102;27;11556;-74
2022/03/05 15:55:20;;;;;;;;;8.00;8.00;;;;;;;;5161663;27;12610;-74
2022/03/05 15:57:46;;;;;;;;;11.00;8.00;;;;;;;;5161359;27;11471;-76
2022/03/05 16:00:11;;;;;;;;;11.00;6.00;;;;;;;;5160816;27;16248;-75
2022/03/05 16:02:39;;;;;;;;;12.25;7.50;;;;;;;;5158454;27;8902;-75
2022/03/05 16:05:06;;;;;;;;;9.25;7.00;;;;;;;;5161598;27;10528;-72
2022/03/05 16:07:31;;;;;;;;;10.00;8.00;;;;;;;;5159215;27;22075;-73
2022/03/05 16:09:57;;;;;;;;;14.25;9.75;;;;;;;;5156382;27;21581;-74
2022/03/05 16:12:22;;;;;;;;;11.00;8.25;;;;;;;;5161178;27;11683;-74
2022/03/05 16:14:47;;;;;;;;;11.75;8.50;;;;;;;;5161414;27;10827;-73
2022/03/05 16:17:13;;;;;;;;;10.00;8.00;;;;;;;;5158722;27;8822;-75
2022/03/05 16:19:38;;;;;;;;;5.00;5.00;;;;;;;;5162530;27;10486;-77
2022/03/05 16:22:03;;;;;;;;;9.75;8.75;;;;;;;;5141938;27;22733;-76
2022/03/05 16:24:29;;;;;;;;;9.75;8.50;;;;;;;;5161263;27;11621;-74
2022/03/05 16:26:54;;;;;;;;;12.00;9.75;;;;;;;;5161908;27;8847;-76
2022/03/05 16:29:19;;;;;;;;;9.75;9.75;;;;;;;;5160437;27;21650;-75
2022/03/05 16:31:45;;;;;;;;;9.00;7.50;;;;;;;;5141683;27;18762;-75
2022/03/05 16:34:10;;;;;;;;;10.00;9.00;;;;;;;;5160445;27;10569;-75
2022/03/05 16:36:35;;;;;;;;;10.00;8.67;;;;;;;;5160476;27;21901;-76
2022/03/05 16:39:01;;;;;;;;;12.00;10.67;;;;;;;;5160592;27;8806;-75
2022/03/05 16:41:27;;;;;;;;;12.00;9.67;;;;;;;;5160109;27;21813;-76
2022/03/05 16:43:52;;;;;;;;;10.67;10.33;;;;;;;;5160369;27;17465;-78
2022/03/05 16:46:18;;;;;;;;;12.00;8.33;;;;;;;;5156634;27;21531;-74
2022/03/05 16:48:44;;;;;;;;;10.33;9.00;;;;;;;;5161068;27;21986;-74
2022/03/05 16:51:10;;;;;;;;;12.00;9.67;;;;;;;;5160075;27;11483;-76
2022/03/05 16:53:35;;;;;;;;;14.33;9.00;;;;;;;;5141689;27;12463;-75
2022/03/05 16:56:00;;;;;;;;;8.00;8.00;;;;;;;;5160876;27;10355;-74
2022/03/05 16:58:26;;;;;;;;;8.00;6.67;;;;;;;;5160355;27;22600;-74
2022/03/05 17:00:51;;;;;;;;;12.00;8.33;;;;;;;;5161045;27;9269;-75
2022/03/05 17:03:16;;;;;;;;;6.67;6.67;;;;;;;;5160279;27;21375;-76
2022/03/05 17:05:42;;;;;;;;;6.00;6.00;;;;;;;;5160511;27;22778;-76
2022/03/05 17:08:07;;;;;;;;;10.33;6.00;;;;;;;;5160244;27;9547;-78
2022/03/05 17:10:32;;;;;;;;;12.00;8.33;;;;;;;;5160538;27;17732;-78
2022/03/05 17:12:57;;;;;;;;;13.33;7.00;;;;;;;;5141031;27;10838;-77
2022/03/05 17:15:23;;;;;;;;;15.00;11.67;;;;;;;;5160015;27;10557;-78
2022/03/05 17:17:49;;;;;;;;;9.00;7.67;;;;;;;;5159769;27;21568;-79
2022/03/05 17:20:15;;;;;;;;;8.00;8.00;;;;;;;;5159658;27;22183;-78
2022/03/05 17:22:40;;;;;;;;;11.00;8.00;;;;;;;;5160399;27;11559;-78
2022/03/05 17:25:07;;;;;;;;;12.67;9.67;;;;;;;;5160791;27;17390;-86
2022/03/05 17:27:33;;;;;;;;;8.00;7.00;;;;;;;;5161204;27;11308;-83
2022/03/05 17:30:02;;;;;;;;;9.00;8.00;;;;;;;;5159912;27;21579;-86
2022/03/05 17:32:28;;;;;;;;;8.33;7.33;;;;;;;;5141834;27;10403;-83
2022/03/05 17:34:53;;;;;;;;;10.33;8.00;;;;;;;;5142643;27;11867;-89
2022/03/05 17:37:19;;;;;;;;;26.00;23.00;;;;;;;;5158143;27;22065;-84
2022/03/05 17:39:44;;;;;;;;;22.33;18.00;;;;;;;;5156365;27;22715;-83
2022/03/05 17:42:09;;;;;;;;;15.00;14.33;;;;;;;;5160849;27;11394;-77
2022/03/05 17:44:35;;;;;;;;;30.33;25.33;;;;;;;;5161418;27;13418;-78
2022/03/05 17:47:00;;;;;;;;;18.00;16.00;;;;;;;;5149024;27;12387;-77
2022/03/05 17:49:28;;;;;;;;;13.00;10.67;;;;;;;;5141079;27;13383;-78
2022/03/05 17:51:54;;;;;;;;;15.67;15.33;;;;;;;;5141325;27;12511;-77
2022/03/05 17:54:20;;;;;;;;;15.33;13.00;;;;;;;;5140045;27;12563;-77
2022/03/05 17:56:45;;;;;;;;;19.33;15.33;;;;;;;;5140362;27;10363;-74
2022/03/05 17:59:10;;;;;;;;;14.33;14.33;;;;;;;;5148671;27;11378;-73
2022/03/05 18:01:37;;;;;;;;;12.67;12.67;;;;;;;;5160559;27;8898;-74
2022/03/05 18:04:03;;;;;;;;;15.00;15.00;;;;;;;;5161761;27;11430;-74
2022/03/05 18:06:28;;;;;;;;;12.67;12.33;;;;;;;;5161446;27;11546;-74
2022/03/05 18:08:53;;;;;;;;;11.67;11.67;;;;;;;;5161367;27;11361;-74
2022/03/05 18:11:19;;;;;;;;;15.67;12.00;;;;;;;;5158247;27;11433;-74
2022/03/05 18:13:44;;;;;;;;;11.00;11.00;;;;;;;;5151181;27;11603;-73
2022/03/05 18:16:09;;;;;;;;;12.00;12.00;;;;;;;;5157733;27;10339;-73
2022/03/05 18:18:35;;;;;;;;;12.33;11.33;;;;;;;;5160627;27;9779;-73
2022/03/05 18:21:00;;;;;;;;;12.33;11.67;;;;;;;;5141868;27;10400;-74
2022/03/05 18:23:26;;;;;;;;;14.00;12.33;;;;;;;;5160102;27;8784;-75
2022/03/05 18:25:53;;;;;;;;;16.00;13.00;;;;;;;;5146243;27;11556;-75
2022/03/05 18:28:18;;;;;;;;;12.00;12.00;;;;;;;;5140047;27;14720;-74
2022/03/05 18:30:43;;;;;;;;;20.67;15.00;;;;;;;;5159966;27;8820;-74
2022/03/05 18:33:09;;;;;;;;;12.00;12.00;;;;;;;;5140618;27;14249;-74
2022/03/05 18:35:34;;;;;;;;;16.00;12.00;;;;;;;;5141891;27;15234;-74
2022/03/05 18:38:00;;;;;;;;;17.67;15.33;;;;;;;;5160991;27;8784;-75
2022/03/05 18:40:25;;;;;;;;;13.67;13.33;;;;;;;;5160207;27;11545;-74
2022/03/05 18:42:50;;;;;;;;;12.00;12.00;;;;;;;;5160293;27;8967;-74
2022/03/05 18:45:16;;;;;;;;;15.00;11.00;;;;;;;;5160228;27;11513;-73
2022/03/05 18:47:43;;;;;;;;;13.33;11.67;;;;;;;;5159557;27;9868;-73
2022/03/05 18:50:10;;;;;;;;;16.00;15.67;;;;;;;;5140839;27;13948;-76
2022/03/05 18:52:35;;;;;;;;;22.67;13.67;;;;;;;;5160469;27;10625;-77
2022/03/05 18:55:01;;;;;;;;;16.67;11.67;;;;;;;;5160577;27;12172;-76
2022/03/05 18:57:26;;;;;;;;;15.33;14.33;;;;;;;;5141917;27;11087;-76
2022/03/05 18:59:51;;;;;;;;;15.67;11.00;;;;;;;;5160403;27;11375;-77
2022/03/05 19:02:17;;;;;;;;;14.00;14.00;;;;;;;;5140970;27;12543;-76
2022/03/05 19:04:42;;;;;;;;;16.67;13.33;;;;;;;;5160278;27;10352;-74
2022/03/05 19:07:10;;;;;;;;;15.00;14.67;;;;;;;;5160222;27;11451;-79
2022/03/05 19:09:35;;;;;;;;;15.33;12.33;;;;;;;;5161067;27;11461;-75
2022/03/05 19:12:00;;;;;;;;;19.33;16.67;;;;;;;;5160481;27;10890;-75
2022/03/05 19:14:25;;;;;;;;;17.00;15.67;;;;;;;;5160631;27;11496;-74
2022/03/05 19:16:51;;;;;;;;;11.67;10.33;;;;;;;;5141691;27;12546;-74
2022/03/05 19:19:16;;;;;;;;;15.33;15.00;;;;;;;;5159947;27;12147;-74
2022/03/05 19:21:42;;;;;;;;;16.67;15.00;;;;;;;;5160003;27;12729;-75
2022/03/05 19:24:07;;;;;;;;;15.67;15.67;;;;;;;;5159518;27;8841;-74
2022/03/05 19:26:33;;;;;;;;;19.00;17.00;;;;;;;;5160953;27;11724;-76
2022/03/05 19:28:59;;;;;;;;;25.33;17.67;;;;;;;;5159995;27;11348;-75
2022/03/05 19:31:25;;;;;;;;;15.67;14.67;;;;;;;;5155754;27;14601;-80
2022/03/05 19:33:50;;;;;;;;;15.67;14.33;;;;;;;;5156842;27;13521;-77
2022/03/05 19:36:15;;;;;;;;;19.67;14.00;;;;;;;;5136131;27;8842;-76
2022/03/05 19:38:41;;;;;;;;;21.33;14.67;;;;;;;;5150287;27;11359;-77
2022/03/05 19:41:06;;;;;;;;;12.00;12.00;;;;;;;;5159119;27;13258;-77
2022/03/05 19:43:31;;;;;;;;;15.67;14.67;;;;;;;;5159863;27;13591;-77
2022/03/05 19:45:56;;;;;;;;;19.00;17.00;;;;;;;;5140676;27;13791;-76
2022/03/05 19:48:22;;;;;;;;;16.67;13.00;;;;;;;;5159908;27;11594;-77
2022/03/05 19:50:47;;;;;;;;;17.33;16.67;;;;;;;;5140663;27;13016;-77
2022/03/05 19:53:13;;;;;;;;;15.00;15.00;;;;;;;;5159483;27;11415;-77
2022/03/05 19:55:38;;;;;;;;;20.33;16.00;;;;;;;;5159574;27;11374;-77
2022/03/05 19:58:04;;;;;;;;;21.00;17.33;;;;;;;;5160190;27;12417;-77
2022/03/05 20:00:29;;;;;;;;;16.00;16.00;;;;;;;;5159989;27;11628;-78
2022/03/05 20:02:56;;;;;;;;;19.67;15.00;;;;;;;;5160255;27;13250;-77
2022/03/05 20:05:22;;;;;;;;;15.00;12.67;;;;;;;;5159929;27;11584;-77
2022/03/05 20:07:48;;;;;;;;;16.67;15.67;;;;;;;;5140053;27;13106;-77
2022/03/05 20:10:14;;;;;;;;;16.67;13.33;;;;;;;;5162573;27;10325;-78
2022/03/05 20:12:39;;;;;;;;;16.00;12.67;;;;;;;;5162311;27;8928;-78
2022/03/05 20:15:05;;;;;;;;;19.00;15.33;;;;;;;;5146016;27;10711;-77
2022/03/05 20:17:30;;;;;;;;;18.33;15.33;;;;;;;;5143114;27;11506;-78
2022/03/05 20:19:56;;;;;;;;;15.67;13.33;;;;;;;;5143226;27;8764;-79
2022/03/05 20:22:23;;;;;;;;;18.33;14.00;;;;;;;;5142009;27;10541;-76
2022/03/05 20:24:49;;;;;;;;;13.00;13.00;;;;;;;;5142777;27;12504;-78
2022/03/05 20:27:15;;;;;;;;;16.33;14.00;;;;;;;;5141837;27;10416;-76
2022/03/05 20:29:41;;;;;;;;;18.67;18.00;;;;;;;;5142261;27;10595;-79
2022/03/05 20:32:06;;;;;;;;;18.33;15.00;;;;;;;;5141931;27;10456;-80
2022/03/05 20:34:32;;;;;;;;;20.33;14.00;;;;;;;;5141713;27;9485;-78
2022/03/05 20:36:58;;;;;;;;;14.33;13.33;;;;;;;;5141382;27;10707;-77
2022/03/05 20:39:23;;;;;;;;;17.67;15.33;;;;;;;;5142318;27;13448;-77
2022/03/05 20:41:48;;;;;;;;;18.67;14.00;;;;;;;;5140329;27;12721;-77
2022/03/05 20:44:14;;;;;;;;;20.00;15.00;;;;;;;;5157619;27;11377;-77
2022/03/05 20:46:40;;;;;;;;;16.33;15.67;;;;;;;;5163152;27;12419;-77
2022/03/05 20:49:05;;;;;;;;;19.00;12.00;;;;;;;;5162794;27;13286;-77
2022/03/05 20:51:31;;;;;;;;;15.00;13.33;;;;;;;;5162523;27;11385;-77
2022/03/05 20:53:56;;;;;;;;;18.33;16.00;;;;;;;;5138393;27;13898;-78
2022/03/05 20:56:22;;;;;;;;;20.00;16.00;;;;;;;;5150590;27;11650;-78
2022/03/05 20:58:49;;;;;;;;;16.67;14.00;;;;;;;;5123154;27;11965;-76
2022/03/05 21:01:15;;;;;;;;;16.67;16.67;;;;;;;;5141600;27;12688;-77
2022/03/05 21:03:40;;;;;;;;;17.33;15.00;;;;;;;;5149053;27;8973;-78
2022/03/05 21:06:05;;;;;;;;;16.67;14.33;;;;;;;;5150856;27;11421;-77
2022/03/05 21:08:31;;;;;;;;;18.33;15.67;;;;;;;;5141474;27;11364;-77
2022/03/05 21:10:57;;;;;;;;;17.00;14.00;;;;;;;;5141357;27;11434;-77
2022/03/05 21:13:22;;;;;;;;;21.33;17.33;;;;;;;;5141889;27;11520;-77
